• Join FlightAware (Why Join?)
  • Login
  • US Flag 
11:20PM EDT


 

Airport Tracker/Info


-or-


 

Live Flight TrackerFlight Track Log ✈ ASQ6115 ✈ 30-Apr-2013 ✈ KORD - KMSN

Flight Track Log - Related Links

Times and Time Zones

All times are in EDT time to prevent confusion due to time zone crossing. See the ASQ6115 flight status page for this flight to view local times or setup timezone preferences in your user account.

Time Position Orientation Groundspeed Altitude Reporting Facility
EDT Latitude Longitude Course Direction KTS MPH feet Rate Location/Type
07:16PM 41.9667 -87.9833 346° North 184 212 3,500  Level Chicago TRACON
07:17PM 41.9667 -88.0667 270° West 257 296 5,000 1,920 Climbing Chicago TRACON
07:18PM 42.0500 -88.0667 360° North 308 354 7,400 2,340 Climbing Chicago TRACON
07:19PM 42.1333 -88.0667 360° North 308 354 9,700 2,040 Climbing Chicago TRACON
07:20PM 42.2167 -88.0500 North 323 372 11,500 1,080 Climbing Chicago TRACON
07:21PM 42.4411 -88.0470 346° North  Level FlightAware Approximate
07:21PM 42.3097 -88.0469 North 321 369 12,000  Level Chicago Center
07:22PM 42.3969 -88.0431 North 324 373 12,000  Level Chicago Center
07:23PM 42.5031 -88.0378 North 325 374 12,000  Level Chicago Center
07:24PM 42.5944 -88.0328 North 328 377 12,000  Level Chicago Center
07:25PM 42.6767 -88.0583 347° North 307 353 12,000  Level Chicago Center
07:26PM 42.7533 -88.1103 334° Northwest 307 353 12,000  Level Chicago Center
07:27PM 42.8311 -88.1633 333° Northwest 309 356 12,100 -60 Climbing Chicago Center
07:28PM 42.9092 -88.2414 324° Northwest 349 402 11,900 -540 Descending Chicago Center
07:29PM 42.9456 -88.3828 289° West 334 384 11,100 -900 Descending Chicago Center
07:30PM 42.9719 -88.5142 285° West 352 405 10,100 -540 Descending Chicago Center
07:31PM 42.9989 -88.6425 286° West 352 405 10,100  Level Chicago Center
07:32PM 43.0286 -88.7664 288° West 341 392 10,100 -480 Level Chicago Center
07:33PM 43.0625 -88.8553 298° West 266 306 9,100 -1,320 Descending Chicago Center
07:34PM 43.0936 -88.9369 298° West 246 283 7,400 -1,500 Descending Chicago Center
07:35PM 43.1317 -89.0275 300° West 238 274 6,000 -1,260 Descending Chicago Center
07:36PM 43.1619 -89.1067 298° West 236 272 4,800 -1,320 Descending Chicago Center
07:37PM 43.1925 -89.1803 300° West 229 264 3,400 -1,080 Descending Chicago Center
07:38PM 43.2203 -89.2492 299° West 218 251 2,600 -780 Descending Chicago Center